sensor_id;sensor_type;location;lat;lon;timestamp;pressure;altitude;pressure_sealevel;temperature;humidity
20156;BME280;10238;49.556;10.956;2022-12-08T00:02:43;97885.84;;;1.80;100.00
20156;BME280;10238;49.556;10.956;2022-12-08T00:05:31;97886.91;;;1.77;100.00
20156;BME280;10238;49.556;10.956;2022-12-08T00:08:36;97894.06;;;1.75;100.00
20156;BME280;10238;49.556;10.956;2022-12-08T00:11:41;97889.28;;;1.69;100.00
20156;BME280;10238;49.556;10.956;2022-12-08T00:14:32;97889.50;;;1.66;100.00
20156;BME280;10238;49.556;10.956;2022-12-08T00:17:21;97883.63;;;1.63;100.00
20156;BME280;10238;49.556;10.956;2022-12-08T00:20:09;97870.88;;;1.58;100.00
20156;BME280;10238;49.556;10.956;2022-12-08T00:22:57;97877.41;;;1.53;100.00
20156;BME280;10238;49.556;10.956;2022-12-08T00:25:45;97876.75;;;1.49;100.00
20156;BME280;10238;49.556;10.956;2022-12-08T00:28:34;97871.75;;;1.46;100.00
20156;BME280;10238;49.556;10.956;2022-12-08T00:31:23;97872.31;;;1.39;100.00
20156;BME280;10238;49.556;10.956;2022-12-08T00:34:12;97872.44;;;1.37;100.00
20156;BME280;10238;49.556;10.956;2022-12-08T00:37:00;97872.44;;;1.37;100.00
20156;BME280;10238;49.556;10.956;2022-12-08T00:39:48;97867.41;;;1.34;100.00
20156;BME280;10238;49.556;10.956;2022-12-08T00:42:36;97876.19;;;1.33;100.00
20156;BME280;10238;49.556;10.956;2022-12-08T00:45:24;97866.91;;;1.29;100.00
20156;BME280;10238;49.556;10.956;2022-12-08T00:48:13;97866.16;;;1.27;100.00
20156;BME280;10238;49.556;10.956;2022-12-08T00:51:01;97873.31;;;1.25;100.00
20156;BME280;10238;49.556;10.956;2022-12-08T00:53:50;97874.38;;;1.23;100.00
20156;BME280;10238;49.556;10.956;2022-12-08T00:56:38;97877.19;;;1.20;100.00
20156;BME280;10238;49.556;10.956;2022-12-08T00:59:26;97867.88;;;1.16;100.00
20156;BME280;10238;49.556;10.956;2022-12-08T01:02:14;97867.16;;;1.14;100.00
20156;BME280;10238;49.556;10.956;2022-12-08T01:05:04;97869.16;;;1.10;100.00
20156;BME280;10238;49.556;10.956;2022-12-08T01:07:51;97867.69;;;1.06;100.00
20156;BME280;10238;49.556;10.956;2022-12-08T01:10:39;97863.63;;;1.02;100.00
20156;BME280;10238;49.556;10.956;2022-12-08T01:13:28;97865.50;;;1.00;100.00
20156;BME280;10238;49.556;10.956;2022-12-08T01:16:19;97869.28;;;0.96;100.00
20156;BME280;10238;49.556;10.956;2022-12-08T01:19:08;97866.91;;;0.93;100.00
20156;BME280;10238;49.556;10.956;2022-12-08T01:21:57;97869.72;;;0.90;100.00
20156;BME280;10238;49.556;10.956;2022-12-08T01:24:45;97866.47;;;0.87;100.00
20156;BME280;10238;49.556;10.956;2022-12-08T01:27:33;97871.09;;;0.83;100.00
20156;BME280;10238;49.556;10.956;2022-12-08T01:30:21;97871.31;;;0.80;100.00
20156;BME280;10238;49.556;10.956;2022-12-08T01:33:10;97877.88;;;0.73;100.00
20156;BME280;10238;49.556;10.956;2022-12-08T01:36:02;97870.16;;;0.72;100.00
20156;BME280;10238;49.556;10.956;2022-12-08T01:38:53;97863.34;;;0.69;100.00
20156;BME280;10238;49.556;10.956;2022-12-08T01:41:42;97874.03;;;0.66;100.00
20156;BME280;10238;49.556;10.956;2022-12-08T01:44:52;97868.09;;;0.64;100.00
20156;BME280;10238;49.556;10.956;2022-12-08T01:47:43;97876.13;;;0.61;100.00
20156;BME280;10238;49.556;10.956;2022-12-08T01:50:33;97868.50;;;0.58;100.00
20156;BME280;10238;49.556;10.956;2022-12-08T01:53:24;97868.81;;;0.54;100.00
20156;BME280;10238;49.556;10.956;2022-12-08T01:56:19;97862.13;;;0.50;100.00
20156;BME280;10238;49.556;10.956;2022-12-08T01:59:10;97858.88;;;0.46;100.00
20156;BME280;10238;49.556;10.956;2022-12-08T02:01:59;97851.25;;;0.43;100.00
20156;BME280;10238;49.556;10.956;2022-12-08T02:04:49;97847.88;;;0.41;100.00
20156;BME280;10238;49.556;10.956;2022-12-08T02:07:37;97848.94;;;0.39;100.00
20156;BME280;10238;49.556;10.956;2022-12-08T02:10:28;97844.97;;;0.33;100.00
20156;BME280;10238;49.556;10.956;2022-12-08T02:13:19;97847.78;;;0.30;100.00
20156;BME280;10238;49.556;10.956;2022-12-08T02:16:11;97842.78;;;0.27;100.00
20156;BME280;10238;49.556;10.956;2022-12-08T02:22:24;97830.53;;;0.15;100.00
20156;BME280;10238;49.556;10.956;2022-12-08T02:25:36;97827.22;;;0.13;100.00
20156;BME280;10238;49.556;10.956;2022-12-08T02:28:53;97823.84;;;0.11;100.00
20156;BME280;10238;49.556;10.956;2022-12-08T02:31:57;97818.84;;;0.08;100.00
20156;BME280;10238;49.556;10.956;2022-12-08T02:34:56;97820.09;;;0.03;100.00
20156;BME280;10238;49.556;10.956;2022-12-08T02:37:49;97827.19;;;0.00;100.00
20156;BME280;10238;49.556;10.956;2022-12-08T02:40:47;97817.88;;;-0.04;100.00
20156;BME280;10238;49.556;10.956;2022-12-08T02:43:40;97820.69;;;-0.07;100.00
20156;BME280;10238;49.556;10.956;2022-12-08T02:46:34;97817.44;;;-0.10;100.00
20156;BME280;10238;49.556;10.956;2022-12-08T02:49:28;97810.75;;;-0.14;100.00
20156;BME280;10238;49.556;10.956;2022-12-08T02:52:39;97816.28;;;-0.19;100.00
20156;BME280;10238;49.556;10.956;2022-12-08T02:55:30;97801.66;;;-0.21;100.00
20156;BME280;10238;49.556;10.956;2022-12-08T03:02:05;97796.44;;;-0.21;100.00
20156;BME280;10238;49.556;10.956;2022-12-08T03:05:02;97800.00;;;-0.22;100.00
20156;BME280;10238;49.556;10.956;2022-12-08T03:07:59;97795.00;;;-0.25;100.00
20156;BME280;10238;49.556;10.956;2022-12-08T03:10:54;97795.19;;;-0.28;100.00
20156;BME280;10238;49.556;10.956;2022-12-08T03:13:47;97789.97;;;-0.28;100.00
20156;BME280;10238;49.556;10.956;2022-12-08T03:16:38;97785.66;;;-0.29;100.00
20156;BME280;10238;49.556;10.956;2022-12-08T03:19:31;97783.06;;;-0.29;100.00
20156;BME280;10238;49.556;10.956;2022-12-08T03:22:22;97782.25;;;-0.30;100.00
20156;BME280;10238;49.556;10.956;2022-12-08T03:25:14;97788.19;;;-0.28;100.00
20156;BME280;10238;49.556;10.956;2022-12-08T03:28:04;97783.16;;;-0.31;100.00
20156;BME280;10238;49.556;10.956;2022-12-08T03:30:55;97779.72;;;-0.31;100.00
20156;BME280;10238;49.556;10.956;2022-12-08T03:33:50;97783.25;;;-0.32;100.00
20156;BME280;10238;49.556;10.956;2022-12-08T03:36:39;97778.78;;;-0.30;100.00
20156;BME280;10238;49.556;10.956;2022-12-08T03:39:27;97782.25;;;-0.30;100.00
20156;BME280;10238;49.556;10.956;2022-12-08T03:42:17;97769.09;;;-0.28;100.00
20156;BME280;10238;49.556;10.956;2022-12-08T03:45:05;97773.34;;;-0.27;100.00
20156;BME280;10238;49.556;10.956;2022-12-08T03:47:53;97771.50;;;-0.25;100.00
20156;BME280;10238;49.556;10.956;2022-12-08T03:50:41;97775.75;;;-0.24;100.00
20156;BME280;10238;49.556;10.956;2022-12-08T03:53:29;97766.16;;;-0.24;100.00
20156;BME280;10238;49.556;10.956;2022-12-08T03:56:22;97765.22;;;-0.23;100.00
20156;BME280;10238;49.556;10.956;2022-12-08T03:59:11;97768.69;;;-0.22;100.00
20156;BME280;10238;49.556;10.956;2022-12-08T04:02:00;97765.13;;;-0.21;100.00
20156;BME280;10238;49.556;10.956;2022-12-08T04:04:48;97758.13;;;-0.21;100.00
20156;BME280;10238;49.556;10.956;2022-12-08T04:07:36;97755.28;;;-0.18;100.00
20156;BME280;10238;49.556;10.956;2022-12-08T04:10:24;97757.88;;;-0.18;100.00
20156;BME280;10238;49.556;10.956;2022-12-08T04:13:12;97754.38;;;-0.17;100.00
20156;BME280;10238;49.556;10.956;2022-12-08T04:16:01;97742.88;;;-0.14;100.00
20156;BME280;10238;49.556;10.956;2022-12-08T04:18:50;97747.13;;;-0.13;100.00
20156;BME280;10238;49.556;10.956;2022-12-08T04:21:38;97748.84;;;-0.12;100.00
20156;BME280;10238;49.556;10.956;2022-12-08T04:24:26;97742.66;;;-0.11;100.00
20156;BME280;10238;49.556;10.956;2022-12-08T04:27:14;97748.72;;;-0.11;100.00
20156;BME280;10238;49.556;10.956;2022-12-08T04:30:06;97752.16;;;-0.10;100.00
20156;BME280;10238;49.556;10.956;2022-12-08T04:32:56;97736.28;;;-0.07;100.00
20156;BME280;10238;49.556;10.956;2022-12-08T04:35:44;97737.75;;;-0.03;100.00
20156;BME280;10238;49.556;10.956;2022-12-08T04:38:32;97742.97;;;-0.03;100.00
20156;BME280;10238;49.556;10.956;2022-12-08T04:41:20;97737.56;;;0.00;100.00
20156;BME280;10238;49.556;10.956;2022-12-08T04:44:08;97740.97;;;0.00;100.00
20156;BME280;10238;49.556;10.956;2022-12-08T04:46:56;97743.50;;;0.02;100.00
20156;BME280;10238;49.556;10.956;2022-12-08T04:49:45;97740.03;;;0.01;100.00
20156;BME280;10238;49.556;10.956;2022-12-08T04:52:36;97737.31;;;0.03;100.00
20156;BME280;10238;49.556;10.956;2022-12-08T04:55:38;97730.22;;;0.05;100.00
20156;BME280;10238;49.556;10.956;2022-12-08T04:58:27;97729.06;;;0.09;100.00
20156;BME280;10238;49.556;10.956;2022-12-08T05:01:15;97729.16;;;0.20;100.00
20156;BME280;10238;49.556;10.956;2022-12-08T05:04:03;97735.44;;;0.18;100.00
20156;BME280;10238;49.556;10.956;2022-12-08T05:06:54;97730.34;;;0.16;100.00
20156;BME280;10238;49.556;10.956;2022-12-08T05:09:41;97730.09;;;0.19;100.00
20156;BME280;10238;49.556;10.956;2022-12-08T05:12:30;97730.94;;;0.20;100.00
20156;BME280;10238;49.556;10.956;2022-12-08T05:15:18;97733.44;;;0.21;100.00
20156;BME280;10238;49.556;10.956;2022-12-08T05:18:06;97738.66;;;0.21;100.00
20156;BME280;10238;49.556;10.956;2022-12-08T05:20:54;97736.25;;;0.18;100.00
20156;BME280;10238;49.556;10.956;2022-12-08T05:23:43;97730.22;;;0.18;100.00
20156;BME280;10238;49.556;10.956;2022-12-08T05:26:31;97728.31;;;0.20;100.00
20156;BME280;10238;49.556;10.956;2022-12-08T05:29:19;97725.59;;;0.21;100.00
20156;BME280;10238;49.556;10.956;2022-12-08T05:32:07;97737.72;;;0.22;100.00
20156;BME280;10238;49.556;10.956;2022-12-08T05:34:57;97735.09;;;0.22;100.00
20156;BME280;10238;49.556;10.956;2022-12-08T05:37:45;97734.19;;;0.23;100.00
20156;BME280;10238;49.556;10.956;2022-12-08T05:40:35;97733.22;;;0.24;100.00
20156;BME280;10238;49.556;10.956;2022-12-08T05:43:24;97727.06;;;0.25;100.00
20156;BME280;10238;49.556;10.956;2022-12-08T05:46:12;97725.19;;;0.27;100.00
20156;BME280;10238;49.556;10.956;2022-12-08T05:49:01;97718.19;;;0.28;100.00
20156;BME280;10238;49.556;10.956;2022-12-08T05:51:49;97714.50;;;0.30;100.00
20156;BME280;10238;49.556;10.956;2022-12-08T05:54:37;97713.56;;;0.31;100.00
20156;BME280;10238;49.556;10.956;2022-12-08T05:57:26;97714.41;;;0.32;100.00
20156;BME280;10238;49.556;10.956;2022-12-08T06:00:15;97717.13;;;0.30;100.00
20156;BME280;10238;49.556;10.956;2022-12-08T06:03:03;97717.88;;;0.32;100.00
20156;BME280;10238;49.556;10.956;2022-12-08T06:05:51;97715.25;;;0.32;100.00
20156;BME280;10238;49.556;10.956;2022-12-08T06:08:39;97722.88;;;0.35;100.00
20156;BME280;10238;49.556;10.956;2022-12-08T06:11:29;97723.69;;;0.36;100.00
20156;BME280;10238;49.556;10.956;2022-12-08T06:14:19;97722.75;;;0.37;100.00
20156;BME280;10238;49.556;10.956;2022-12-08T06:17:10;97720.75;;;0.40;100.00
20156;BME280;10238;49.556;10.956;2022-12-08T06:19:57;97719.81;;;0.41;100.00
20156;BME280;10238;49.556;10.956;2022-12-08T06:22:46;97720.88;;;0.39;100.00
20156;BME280;10238;49.556;10.956;2022-12-08T06:25:37;97721.59;;;0.41;100.00
20156;BME280;10238;49.556;10.956;2022-12-08T06:28:25;97723.91;;;0.45;100.00
20156;BME280;10238;49.556;10.956;2022-12-08T06:31:18;97723.16;;;0.43;100.00
20156;BME280;10238;49.556;10.956;2022-12-08T06:34:07;97721.28;;;0.45;100.00
20156;BME280;10238;49.556;10.956;2022-12-08T06:36:55;97725.34;;;0.49;100.00
20156;BME280;10238;49.556;10.956;2022-12-08T06:39:43;97723.69;;;0.48;100.00
20156;BME280;10238;49.556;10.956;2022-12-08T06:42:31;97722.72;;;0.49;100.00
20156;BME280;10238;49.556;10.956;2022-12-08T06:45:31;97718.47;;;0.48;100.00
20156;BME280;10238;49.556;10.956;2022-12-08T06:48:21;97721.06;;;0.48;100.00
20156;BME280;10238;49.556;10.956;2022-12-08T06:51:10;97722.94;;;0.46;100.00
20156;BME280;10238;49.556;10.956;2022-12-08T06:53:58;97722.94;;;0.46;100.00
20156;BME280;10238;49.556;10.956;2022-12-08T06:56:48;97727.22;;;0.47;100.00
20156;BME280;10238;49.556;10.956;2022-12-08T06:59:37;97733.28;;;0.48;100.00
20156;BME280;10238;49.556;10.956;2022-12-08T07:02:25;97730.56;;;0.49;100.00
20156;BME280;10238;49.556;10.956;2022-12-08T07:05:14;97728.91;;;0.48;100.00
20156;BME280;10238;49.556;10.956;2022-12-08T07:08:03;97728.81;;;0.50;100.00
20156;BME280;10238;49.556;10.956;2022-12-08T07:10:52;97732.25;;;0.50;100.00
20156;BME280;10238;49.556;10.956;2022-12-08T07:13:43;97739.06;;;0.53;100.00
20156;BME280;10238;49.556;10.956;2022-12-08T07:16:34;97732.88;;;0.54;100.00
20156;BME280;10238;49.556;10.956;2022-12-08T07:19:23;97738.91;;;0.54;100.00
20156;BME280;10238;49.556;10.956;2022-12-08T07:22:12;97736.28;;;0.54;100.00
20156;BME280;10238;49.556;10.956;2022-12-08T07:25:00;97731.69;;;0.58;100.00
20156;BME280;10238;49.556;10.956;2022-12-08T07:27:48;97728.88;;;0.61;100.00
20156;BME280;10238;49.556;10.956;2022-12-08T07:30:38;97731.38;;;0.62;100.00
20156;BME280;10238;49.556;10.956;2022-12-08T07:33:26;97739.31;;;0.61;100.00
20156;BME280;10238;49.556;10.956;2022-12-08T07:36:15;97734.72;;;0.64;100.00
20156;BME280;10238;49.556;10.956;2022-12-08T07:39:05;97733.78;;;0.65;100.00
20156;BME280;10238;49.556;10.956;2022-12-08T07:41:53;97740.44;;;0.69;100.00
20156;BME280;10238;49.556;10.956;2022-12-08T07:44:41;97738.56;;;0.71;100.00
20156;BME280;10238;49.556;10.956;2022-12-08T07:47:29;97737.41;;;0.75;100.00
20156;BME280;10238;49.556;10.956;2022-12-08T07:50:17;97731.09;;;0.78;100.00
20156;BME280;10238;49.556;10.956;2022-12-08T07:53:05;97730.06;;;0.80;100.00
20156;BME280;10238;49.556;10.956;2022-12-08T07:55:54;97727.25;;;0.83;100.00
20156;BME280;10238;49.556;10.956;2022-12-08T07:58:43;97721.06;;;0.84;100.00
20156;BME280;10238;49.556;10.956;2022-12-08T08:01:33;97722.50;;;0.88;100.00
20156;BME280;10238;49.556;10.956;2022-12-08T08:04:21;97725.63;;;0.93;100.00
20156;BME280;10238;49.556;10.956;2022-12-08T08:07:12;97727.06;;;0.97;100.00
20156;BME280;10238;49.556;10.956;2022-12-08T08:10:00;97732.06;;;1.00;100.00
20156;BME280;10238;49.556;10.956;2022-12-08T08:12:50;97732.59;;;1.05;100.00
20156;BME280;10238;49.556;10.956;2022-12-08T08:15:37;97734.94;;;1.08;100.00
20156;BME280;10238;49.556;10.956;2022-12-08T08:18:25;97737.25;;;1.13;100.00
20156;BME280;10238;49.556;10.956;2022-12-08T08:21:13;97732.41;;;1.19;100.00
20156;BME280;10238;49.556;10.956;2022-12-08T08:24:21;97726.84;;;1.24;100.00
20156;BME280;10238;49.556;10.956;2022-12-08T08:27:10;97725.53;;;1.29;100.00
20156;BME280;10238;49.556;10.956;2022-12-08T08:29:59;97726.06;;;1.34;100.00
20156;BME280;10238;49.556;10.956;2022-12-08T08:32:49;97727.25;;;1.41;100.00
20156;BME280;10238;49.556;10.956;2022-12-08T08:35:38;97723.22;;;1.48;100.00
20156;BME280;10238;49.556;10.956;2022-12-08T08:38:26;97731.59;;;1.53;100.00
20156;BME280;10238;49.556;10.956;2022-12-08T08:41:14;97736.13;;;1.62;100.00
20156;BME280;10238;49.556;10.956;2022-12-08T08:44:03;97734.00;;;1.67;100.00
20156;BME280;10238;49.556;10.956;2022-12-08T08:46:52;97733.31;;;1.76;100.00
20156;BME280;10238;49.556;10.956;2022-12-08T08:49:40;97737.97;;;1.84;100.00
20156;BME280;10238;49.556;10.956;2022-12-08T08:52:29;97731.28;;;1.80;100.00
20156;BME280;10238;49.556;10.956;2022-12-08T08:55:17;97724.53;;;1.88;100.00
20156;BME280;10238;49.556;10.956;2022-12-08T08:58:05;97719.53;;;1.96;100.00
20156;BME280;10238;49.556;10.956;2022-12-08T09:00:53;97726.19;;;2.00;100.00
20156;BME280;10238;49.556;10.956;2022-12-08T09:03:43;97726.06;;;2.02;100.00
20156;BME280;10238;49.556;10.956;2022-12-08T09:06:31;97719.19;;;2.12;100.00
20156;BME280;10238;49.556;10.956;2022-12-08T09:09:20;97722.53;;;2.14;100.00
20156;BME280;10238;49.556;10.956;2022-12-08T09:12:08;97724.56;;;2.21;100.00
20156;BME280;10238;49.556;10.956;2022-12-08T09:14:56;97721.47;;;2.28;100.00
20156;BME280;10238;49.556;10.956;2022-12-08T09:17:45;97715.00;;;2.32;100.00
20156;BME280;10238;49.556;10.956;2022-12-08T09:20:37;97720.03;;;2.35;100.00
20156;BME280;10238;49.556;10.956;2022-12-08T09:23:25;97716.81;;;2.42;100.00
20156;BME280;10238;49.556;10.956;2022-12-08T09:26:21;97715.03;;;2.43;100.00
20156;BME280;10238;49.556;10.956;2022-12-08T09:29:10;97721.81;;;2.45;100.00
20156;BME280;10238;49.556;10.956;2022-12-08T09:31:59;97713.34;;;2.42;100.00
20156;BME280;10238;49.556;10.956;2022-12-08T09:34:47;97712.63;;;2.40;100.00
20156;BME280;10238;49.556;10.956;2022-12-08T09:37:39;97718.34;;;2.45;100.00
20156;BME280;10238;49.556;10.956;2022-12-08T09:40:28;97715.00;;;2.54;100.00
20156;BME280;10238;49.556;10.956;2022-12-08T09:43:32;97710.22;;;2.48;100.00
20156;BME280;10238;49.556;10.956;2022-12-08T09:46:31;97703.78;;;2.63;100.00
20156;BME280;10238;49.556;10.956;2022-12-08T09:49:22;97705.00;;;2.59;100.00
20156;BME280;10238;49.556;10.956;2022-12-08T09:52:19;97699.38;;;2.63;100.00
20156;BME280;10238;49.556;10.956;2022-12-08T09:55:14;97698.53;;;2.63;100.00
20156;BME280;10238;49.556;10.956;2022-12-08T09:58:05;97688.50;;;2.68;100.00
20156;BME280;10238;49.556;10.956;2022-12-08T10:00:57;97688.72;;;2.76;100.00
20156;BME280;10238;49.556;10.956;2022-12-08T10:03:46;97682.16;;;2.81;100.00
20156;BME280;10238;49.556;10.956;2022-12-08T10:06:39;97678.00;;;2.79;100.00
20156;BME280;10238;49.556;10.956;2022-12-08T10:09:35;97670.00;;;2.80;100.00
20156;BME280;10238;49.556;10.956;2022-12-08T10:12:32;97673.19;;;2.84;100.00
20156;BME280;10238;49.556;10.956;2022-12-08T10:15:39;97662.31;;;2.88;100.00
20156;BME280;10238;49.556;10.956;2022-12-08T10:18:30;97666.28;;;2.83;100.00
20156;BME280;10238;49.556;10.956;2022-12-08T10:21:20;97668.66;;;2.86;100.00
20156;BME280;10238;49.556;10.956;2022-12-08T10:24:17;97659.56;;;2.90;100.00
20156;BME280;10238;49.556;10.956;2022-12-08T10:27:07;97652.50;;;3.01;100.00
20156;BME280;10238;49.556;10.956;2022-12-08T10:29:59;97649.50;;;3.06;100.00
20156;BME280;10238;49.556;10.956;2022-12-08T10:32:49;97640.94;;;3.04;100.00
20156;BME280;10238;49.556;10.956;2022-12-08T10:35:46;97638.44;;;3.02;100.00
20156;BME280;10238;49.556;10.956;2022-12-08T10:38:36;97633.63;;;3.07;100.00
20156;BME280;10238;49.556;10.956;2022-12-08T10:41:24;97630.59;;;3.12;100.00
20156;BME280;10238;49.556;10.956;2022-12-08T10:44:13;97630.56;;;3.23;100.00
20156;BME280;10238;49.556;10.956;2022-12-08T10:47:12;97624.97;;;3.16;100.00
20156;BME280;10238;49.556;10.956;2022-12-08T10:50:16;97620.97;;;3.33;100.00
20156;BME280;10238;49.556;10.956;2022-12-08T10:53:12;97606.88;;;3.34;100.00
20156;BME280;10238;49.556;10.956;2022-12-08T10:56:14;97606.34;;;3.40;100.00
20156;BME280;10238;49.556;10.956;2022-12-08T10:59:15;97608.25;;;3.38;100.00
20156;BME280;10238;49.556;10.956;2022-12-08T11:02:06;97607.97;;;3.31;100.00
20156;BME280;10238;49.556;10.956;2022-12-08T11:05:05;97599.81;;;3.34;100.00
20156;BME280;10238;49.556;10.956;2022-12-08T11:07:54;97602.44;;;3.34;100.00
20156;BME280;10238;49.556;10.956;2022-12-08T11:10:44;97593.22;;;3.40;100.00
20156;BME280;10238;49.556;10.956;2022-12-08T11:13:40;97595.25;;;3.57;100.00
20156;BME280;10238;49.556;10.956;2022-12-08T11:16:29;97595.97;;;3.59;100.00
20156;BME280;10238;49.556;10.956;2022-12-08T11:19:20;97585.34;;;3.40;100.00
20156;BME280;10238;49.556;10.956;2022-12-08T11:22:23;97586.75;;;3.44;100.00
20156;BME280;10238;49.556;10.956;2022-12-08T11:25:18;97577.91;;;3.45;100.00
20156;BME280;10238;49.556;10.956;2022-12-08T11:28:10;97577.03;;;3.65;100.00
20156;BME280;10238;49.556;10.956;2022-12-08T11:31:01;97573.31;;;3.67;100.00
20156;BME280;10238;49.556;10.956;2022-12-08T11:33:52;97571.53;;;3.68;100.00
20156;BME280;10238;49.556;10.956;2022-12-08T11:36:40;97566.16;;;3.69;100.00
20156;BME280;10238;49.556;10.956;2022-12-08T11:39:33;97561.66;;;3.60;100.00
20156;BME280;10238;49.556;10.956;2022-12-08T11:42:22;97562.13;;;3.65;100.00
20156;BME280;10238;49.556;10.956;2022-12-08T11:45:14;97562.69;;;3.69;100.00
20156;BME280;10238;49.556;10.956;2022-12-08T11:48:08;97562.72;;;3.78;100.00
20156;BME280;10238;49.556;10.956;2022-12-08T11:51:04;97558.81;;;3.73;100.00
20156;BME280;10238;49.556;10.956;2022-12-08T11:54:09;97560.91;;;3.79;100.00
20156;BME280;10238;49.556;10.956;2022-12-08T11:57:06;97561.03;;;3.68;100.00
20156;BME280;10238;49.556;10.956;2022-12-08T11:59:56;97559.19;;;3.59;100.00
20156;BME280;10238;49.556;10.956;2022-12-08T12:02:49;97556.41;;;3.60;100.00
20156;BME280;10238;49.556;10.956;2022-12-08T12:05:48;97553.84;;;3.70;100.00
20156;BME280;10238;49.556;10.956;2022-12-08T12:09:08;97553.47;;;3.84;100.00
20156;BME280;10238;49.556;10.956;2022-12-08T12:12:07;97558.34;;;3.88;100.00
20156;BME280;10238;49.556;10.956;2022-12-08T12:15:20;97547.25;;;3.85;100.00
20156;BME280;10238;49.556;10.956;2022-12-08T12:18:19;97544.41;;;3.97;100.00
20156;BME280;10238;49.556;10.956;2022-12-08T12:21:13;97544.81;;;3.93;100.00
20156;BME280;10238;49.556;10.956;2022-12-08T12:24:07;97539.88;;;3.79;100.00
20156;BME280;10238;49.556;10.956;2022-12-08T12:27:00;97548.41;;;4.01;100.00
20156;BME280;10238;49.556;10.956;2022-12-08T12:29:52;97540.09;;;3.96;100.00
20156;BME280;10238;49.556;10.956;2022-12-08T12:32:44;97538.63;;;4.13;100.00
20156;BME280;10238;49.556;10.956;2022-12-08T12:35:36;97541.97;;;4.15;100.00
20156;BME280;10238;49.556;10.956;2022-12-08T12:38:31;97547.34;;;4.23;100.00
20156;BME280;10238;49.556;10.956;2022-12-08T12:41:44;97545.69;;;4.22;100.00
20156;BME280;10238;49.556;10.956;2022-12-08T12:44:41;97541.41;;;4.21;100.00
20156;BME280;10238;49.556;10.956;2022-12-08T12:47:46;97535.72;;;4.25;100.00
20156;BME280;10238;49.556;10.956;2022-12-08T12:50:44;97540.31;;;4.33;100.00
20156;BME280;10238;49.556;10.956;2022-12-08T12:53:48;97536.47;;;4.37;100.00
20156;BME280;10238;49.556;10.956;2022-12-08T12:56:56;97546.16;;;4.36;100.00
20156;BME280;10238;49.556;10.956;2022-12-08T13:00:16;97533.84;;;4.37;100.00
20156;BME280;10238;49.556;10.956;2022-12-08T13:03:12;97539.50;;;4.42;100.00
20156;BME280;10238;49.556;10.956;2022-12-08T13:06:01;97527.19;;;4.42;100.00
20156;BME280;10238;49.556;10.956;2022-12-08T13:08:50;97527.59;;;4.47;100.00
20156;BME280;10238;49.556;10.956;2022-12-08T13:11:48;97521.38;;;4.48;100.00
20156;BME280;10238;49.556;10.956;2022-12-08T13:14:44;97519.69;;;4.38;100.00
20156;BME280;10238;49.556;10.956;2022-12-08T13:17:35;97523.44;;;4.45;100.00
20156;BME280;10238;49.556;10.956;2022-12-08T13:20:25;97512.06;;;4.44;100.00
20156;BME280;10238;49.556;10.956;2022-12-08T13:23:40;97511.25;;;4.44;100.00
20156;BME280;10238;49.556;10.956;2022-12-08T13:26:29;97509.03;;;4.20;100.00
20156;BME280;10238;49.556;10.956;2022-12-08T13:29:20;97513.06;;;4.34;100.00
20156;BME280;10238;49.556;10.956;2022-12-08T13:36:17;97494.31;;;3.99;100.00
20156;BME280;10238;49.556;10.956;2022-12-08T13:39:23;97492.63;;;3.98;100.00
20156;BME280;10238;49.556;10.956;2022-12-08T13:42:18;97490.44;;;4.03;100.00
20156;BME280;10238;49.556;10.956;2022-12-08T13:45:15;97502.75;;;3.93;100.00
20156;BME280;10238;49.556;10.956;2022-12-08T13:48:29;97493.22;;;4.11;100.00
20156;BME280;10238;49.556;10.956;2022-12-08T13:51:42;97497.34;;;4.04;100.00
20156;BME280;10238;49.556;10.956;2022-12-08T13:54:51;97501.81;;;4.13;100.00
20156;BME280;10238;49.556;10.956;2022-12-08T14:00:58;97501.88;;;3.83;100.00
20156;BME280;10238;49.556;10.956;2022-12-08T14:03:49;97501.75;;;3.84;100.00
20156;BME280;10238;49.556;10.956;2022-12-08T14:07:01;97504.00;;;3.98;100.00
20156;BME280;10238;49.556;10.956;2022-12-08T14:09:50;97508.94;;;3.92;100.00
20156;BME280;10238;49.556;10.956;2022-12-08T14:13:00;97508.66;;;3.85;100.00
20156;BME280;10238;49.556;10.956;2022-12-08T14:15:49;97508.63;;;3.76;100.00
20156;BME280;10238;49.556;10.956;2022-12-08T14:18:37;97510.03;;;3.80;100.00
20156;BME280;10238;49.556;10.956;2022-12-08T14:21:28;97511.56;;;3.92;100.00
20156;BME280;10238;49.556;10.956;2022-12-08T14:24:23;97508.94;;;3.92;100.00
20156;BME280;10238;49.556;10.956;2022-12-08T14:27:15;97505.06;;;3.86;100.00
20156;BME280;10238;49.556;10.956;2022-12-08T14:30:06;97511.16;;;3.96;100.00
20156;BME280;10238;49.556;10.956;2022-12-08T14:32:56;97507.56;;;3.88;100.00
20156;BME280;10238;49.556;10.956;2022-12-08T14:35:50;97509.78;;;3.83;100.00
20156;BME280;10238;49.556;10.956;2022-12-08T14:38:38;97510.06;;;3.89;100.00
20156;BME280;10238;49.556;10.956;2022-12-08T14:41:31;97506.16;;;3.84;100.00
20156;BME280;10238;49.556;10.956;2022-12-08T14:44:22;97504.06;;;3.78;100.00
20156;BME280;10238;49.556;10.956;2022-12-08T14:47:16;97499.47;;;3.70;100.00
20156;BME280;10238;49.556;10.956;2022-12-08T14:50:37;97503.41;;;3.55;100.00
20156;BME280;10238;49.556;10.956;2022-12-08T14:53:26;97501.56;;;3.67;100.00
20156;BME280;10238;49.556;10.956;2022-12-08T14:56:20;97500.31;;;3.71;100.00
20156;BME280;10238;49.556;10.956;2022-12-08T14:59:13;97507.47;;;3.59;100.00
20156;BME280;10238;49.556;10.956;2022-12-08T15:02:21;97501.69;;;3.65;100.00
20156;BME280;10238;49.556;10.956;2022-12-08T15:05:13;97510.66;;;3.63;100.00
20156;BME280;10238;49.556;10.956;2022-12-08T15:08:06;97512.72;;;3.59;100.00
20156;BME280;10238;49.556;10.956;2022-12-08T15:11:17;97513.81;;;3.57;100.00
20156;BME280;10238;49.556;10.956;2022-12-08T15:14:30;97511.03;;;3.49;100.00